Terminal Aerodrome Forecast
Issued by NWS Detroit/Pontiac, MI

Home | Current Version | Previous Version | Text Only | Print | Product List | Glossary On
Versions: 1 2 3 4 5 6 7 8 9 10 11 12 13 14 15 16 17 18 19 20 21 22 23 24 25 26 27 28
000
FTUS43 KDTX 061732
TAFDTW
TAF
KDTW 061732Z 0618/0724 08009KT 4SM -RA BR BKN015 OVC028
     FM062100 12006KT 2SM -RA BR SCT007 OVC010
     FM070300 25014G23KT P6SM BKN015
      TEMPO 0704/0707 SCT015
     FM070800 24012KT P6SM BKN018=

USA.gov is the U.S. government's official web portal to all federal, state and local government web resources and services.